Stations météo

réclame
Mon MeteoGroup
Valencia, Espagne (8285): Température de l'air & dewpoint: 11.02.2019 13:00:00 - 17.02.2019 13:00:00 (CET)Valencia, Espagne (8285): Vitesse du vent & gusts: 11.02.2019 13:00:00 - 17.02.2019 13:00:00 (CET)Valencia, Espagne (8285): Direction du vent: 11.02.2019 13:00:00 - 17.02.2019 13:00:00 (CET)Valencia, Espagne (8285): Quantités de précipitations: 11.02.2019 13:00:00 - 17.02.2019 13:00:00 (CET)
Date & Time tt [°C] td [°C] ff [km/h] ff [knt] fx [km/h] fx [knt] dd rr [mm]
17.02.2019 13:00:00 - - - - - - - -
17.02.2019 12:00:00 14,0 4,6 4 2 11 6 N 0,0
17.02.2019 11:00:00 11,6 0,9 2 1 10 5 NW 0,0
17.02.2019 10:00:00 7,9 -1,2 3 2 10 5 NNW 0,0
17.02.2019 09:00:00 5,4 -3,0 4 2 9 5 W 0,0
17.02.2019 08:00:00 4,3 -2,5 2 1 9 5 WSW 0,0
17.02.2019 07:00:00 4,0 -2,2 3 2 11 6 WSW -
17.02.2019 06:00:00 4,2 -0,5 3 2 6 3 WSW 0,0
17.02.2019 05:00:00 4,3 -0,5 0 0 4 2 SW 0,0
17.02.2019 04:00:00 5,5 -0,3 1 0 10 5 WSW 0,0
17.02.2019 03:00:00 5,7 1,5 2 1 10 5 W 0,0
17.02.2019 02:00:00 6,4 3,0 1 0 6 4 WSW 0,0
17.02.2019 01:00:00 7,2 4,6 3 2 9 5 W -
17.02.2019 00:00:00 7,9 5,8 1 1 5 3 W 0,0
16.02.2019 23:00:00 9,1 7,0 1 0 7 4 NNW 0,0
16.02.2019 22:00:00 9,5 7,3 0 0 5 3 N 0,0
16.02.2019 21:00:00 9,7 7,1 0 0 6 3 NNW 0,0
16.02.2019 20:00:00 10,4 6,8 1 1 9 5 NNE 0,0
16.02.2019 19:00:00 11,8 6,7 1 1 13 7 E -
16.02.2019 18:00:00 12,8 5,9 2 1 15 8 SE 0,0
16.02.2019 17:00:00 13,6 5,0 6 4 15 8 SE 0,0
16.02.2019 16:00:00 14,2 4,5 5 3 18 10 ESE 0,0
16.02.2019 15:00:00 14,9 3,6 9 5 18 10 ESE 0,0
16.02.2019 14:00:00 16,2 3,9 3 1 14 7 NNE 0,0
16.02.2019 13:00:00 15,6 3,9 1 0 11 6 NNE -
16.02.2019 12:00:00 14,3 4,8 1 1 9 5 E 0,0
16.02.2019 11:00:00 12,2 5,3 3 1 8 4 NNW 0,0
16.02.2019 10:00:00 9,2 5,1 0 0 7 4 NW 0,0
16.02.2019 09:00:00 6,7 4,5 0 0 5 3 WNW 0,0
16.02.2019 08:00:00 5,6 3,6 0 0 4 2 N 0,0
16.02.2019 07:00:00 6,4 4,3 0 0 6 4 NW -
16.02.2019 06:00:00 7,1 4,6 0 0 4 2 WNW 0,0
16.02.2019 05:00:00 7,8 5,3 0 0 1 1 N 0,0
16.02.2019 04:00:00 7,7 4,5 0 0 6 4 N 0,0
16.02.2019 03:00:00 8,8 5,3 3 2 8 5 N 0,0
16.02.2019 02:00:00 9,5 5,6 2 1 10 5 NNW 0,0
16.02.2019 01:00:00 10,2 5,9 5 3 9 5 NNW -
16.02.2019 00:00:00 10,6 5,8 1 1 8 4 NNW 0,0
15.02.2019 23:00:00 10,9 6,1 3 2 8 4 N 0,0
15.02.2019 22:00:00 11,5 5,9 3 1 7 4 N 0,0
15.02.2019 21:00:00 12,1 6,1 4 2 9 5 ESE 0,0
15.02.2019 20:00:00 11,0 5,5 1 1 10 6 SE 0,0
15.02.2019 19:00:00 12,1 5,3 4 2 16 8 SE -
15.02.2019 18:00:00 12,6 4,8 8 4 16 9 ESE 0,0
15.02.2019 17:00:00 13,2 4,1 9 5 18 10 ESE 0,0
15.02.2019 16:00:00 13,8 4,1 6 3 15 8 ESE 0,0
15.02.2019 15:00:00 15,0 5,0 2 1 9 5 NW 0,0
15.02.2019 14:00:00 13,3 4,6 2 1 11 6 N 0,0
15.02.2019 13:00:00 12,7 4,6 2 1 11 6 WNW -
15.02.2019 12:00:00 11,4 4,3 5 3 13 7 N 0,0
15.02.2019 11:00:00 10,6 4,1 4 2 9 5 N 0,0
15.02.2019 10:00:00 10,0 3,4 2 1 9 5 W 0,0
15.02.2019 09:00:00 9,1 3,2 1 1 11 6 NNW 0,0
15.02.2019 08:00:00 8,9 3,6 4 2 11 6 NW 0,0
15.02.2019 07:00:00 8,9 3,9 3 2 9 5 NW -
15.02.2019 06:00:00 8,7 4,5 4 2 9 5 NNW 0,0
15.02.2019 05:00:00 8,2 4,5 0 0 5 3 N 0,0
15.02.2019 04:00:00 7,7 4,5 0 0 4 2 WSW 0,0
15.02.2019 03:00:00 6,9 3,9 0 0 2 1 N 0,0
15.02.2019 02:00:00 6,8 3,4 0 0 5 3 N 0,0
15.02.2019 01:00:00 7,4 3,8 1 1 6 4 W -
15.02.2019 00:00:00 7,8 3,9 2 1 5 3 WSW 0,0
14.02.2019 23:00:00 8,5 4,1 3 1 7 4 N 0,0
14.02.2019 22:00:00 9,0 4,5 3 2 6 4 N 0,0
14.02.2019 21:00:00 9,7 4,1 2 1 10 5 SE 0,0
14.02.2019 20:00:00 10,6 3,6 2 1 10 5 ESE 0,0
14.02.2019 19:00:00 11,8 3,6 1 1 16 9 SSE -
14.02.2019 18:00:00 12,5 3,8 5 3 19 10 ESE 0,0
14.02.2019 17:00:00 13,2 4,1 6 4 17 9 ESE 0,0
14.02.2019 16:00:00 14,2 3,6 3 2 18 10 NE 0,0
14.02.2019 15:00:00 14,5 3,2 5 3 16 8 E 0,0
14.02.2019 14:00:00 14,2 2,7 5 3 15 8 NNE 0,0
14.02.2019 13:00:00 13,8 4,6 3 2 16 9 NE -
14.02.2019 12:00:00 13,5 4,8 4 2 16 9 NNE 0,0
14.02.2019 11:00:00 12,7 5,3 6 3 12 7 NNE 0,0
14.02.2019 10:00:00 11,0 4,6 3 2 12 6 N 0,0
14.02.2019 09:00:00 10,3 5,5 1 1 7 4 N 0,0
14.02.2019 08:00:00 8,5 4,8 4 2 6 4 N 0,0
14.02.2019 07:00:00 8,8 5,1 0 0 3 2 NNE -
14.02.2019 06:00:00 8,7 4,6 0 0 4 2 N 0,0
14.02.2019 05:00:00 9,3 5,0 0 0 6 3 WSW 0,0
14.02.2019 04:00:00 10,2 5,6 2 1 6 3 WSW 0,0
14.02.2019 03:00:00 9,9 5,3 1 0 5 3 NW 0,0
14.02.2019 02:00:00 10,0 5,8 4 2 7 4 N 0,0
14.02.2019 01:00:00 9,6 5,5 3 2 6 3 N -
14.02.2019 00:00:00 9,2 5,0 3 2 6 4 N 0,0
13.02.2019 23:00:00 9,5 5,3 3 2 6 3 N 0,0
13.02.2019 22:00:00 9,8 5,5 4 2 6 3 N 0,0
13.02.2019 21:00:00 10,7 5,3 0 0 9 5 SSE 0,0
13.02.2019 20:00:00 12,0 4,6 1 1 10 6 E 0,0
13.02.2019 19:00:00 12,6 4,1 3 1 16 9 ESE -
13.02.2019 18:00:00 13,5 4,8 5 3 16 9 ESE 0,0
13.02.2019 17:00:00 14,2 5,0 5 3 19 11 ESE 0,0
13.02.2019 16:00:00 15,1 6,4 4 2 18 10 ESE 0,0
13.02.2019 15:00:00 15,1 5,3 2 1 19 10 ENE 0,0
13.02.2019 14:00:00 15,7 5,9 1 1 16 9 ESE 0,0
13.02.2019 13:00:00 - - - - - - - -
13.02.2019 12:00:00 15,5 1,3 0 0 6 3 ESE 0,0
13.02.2019 11:00:00 12,6 1,1 1 0 11 6 WSW 0,0
13.02.2019 10:00:00 9,0 1,1 2 1 13 7 WNW 0,0
13.02.2019 09:00:00 6,4 1,3 3 2 7 4 W 0,1
13.02.2019 08:00:00 5,0 0,6 4 2 6 3 WSW 0,0
13.02.2019 07:00:00 5,5 0,6 0 0 5 3 N -
13.02.2019 06:00:00 5,8 0,9 2 1 9 5 WSW 0,0
13.02.2019 05:00:00 6,2 1,3 5 3 9 5 W 0,0
13.02.2019 04:00:00 6,4 1,3 4 2 7 4 WSW 0,0
13.02.2019 03:00:00 7,0 1,7 4 2 12 6 WSW 0,0
13.02.2019 02:00:00 7,1 2,5 4 2 11 6 W 0,0
13.02.2019 01:00:00 7,6 3,2 6 3 13 7 WSW -
13.02.2019 00:00:00 8,1 5,0 3 2 8 4 W 0,0
12.02.2019 23:00:00 8,8 5,8 0 0 5 3 NNW 0,0
12.02.2019 22:00:00 9,5 6,4 3 1 6 3 N 0,0
12.02.2019 21:00:00 10,3 6,4 0 0 8 4 SSW 0,0
12.02.2019 20:00:00 12,2 6,2 3 1 11 6 SSE 0,0
12.02.2019 19:00:00 12,6 5,8 4 2 12 7 SSE -
12.02.2019 18:00:00 13,5 4,8 6 3 19 11 SE 0,0
12.02.2019 17:00:00 14,0 3,2 8 4 18 10 SE 0,0
12.02.2019 16:00:00 15,0 1,9 8 4 16 9 ESE 0,0
12.02.2019 15:00:00 15,5 1,7 6 4 14 7 SSE 0,0
12.02.2019 14:00:00 15,7 1,7 6 3 14 8 SE 0,0
12.02.2019 13:00:00 - - - - - - - -
12.02.2019 12:00:00 15,5 0,9 1 1 9 5 W 0,0
12.02.2019 11:00:00 13,1 -0,3 4 2 10 5 WSW 0,0
12.02.2019 10:00:00 9,5 0,4 4 2 10 5 WSW 0,0
12.02.2019 09:00:00 7,2 0,2 3 2 9 5 W 0,0
12.02.2019 08:00:00 5,9 -0,3 0 0 6 3 WSW 0,0
12.02.2019 07:00:00 5,5 0,0 1 1 5 3 WSW -
12.02.2019 06:00:00 5,8 0,4 0 0 6 3 WSW 0,0
12.02.2019 05:00:00 6,2 1,3 2 1 8 4 W 0,0
12.02.2019 04:00:00 6,6 2,3 0 0 6 3 W 0,0
12.02.2019 03:00:00 7,0 3,0 1 0 5 3 WSW 0,0
12.02.2019 02:00:00 7,9 3,0 0 0 8 4 WNW 0,0
12.02.2019 01:00:00 8,5 3,4 2 1 10 5 WSW -
12.02.2019 00:00:00 9,2 4,6 1 0 5 3 W 0,0
11.02.2019 23:00:00 9,8 5,6 1 1 6 4 NW 0,0
11.02.2019 22:00:00 11,0 5,8 1 1 10 5 S 0,0
11.02.2019 21:00:00 11,2 5,5 2 1 6 3 SE 0,0
11.02.2019 20:00:00 12,3 5,3 1 1 11 6 S 0,0
11.02.2019 19:00:00 13,1 4,3 5 3 15 8 SSE -
11.02.2019 18:00:00 14,0 2,9 4 2 19 11 S 0,0
11.02.2019 17:00:00 14,5 2,5 10 5 23 13 ESE 0,0
11.02.2019 16:00:00 15,4 2,3 9 5 31 17 ESE 0,0
11.02.2019 15:00:00 16,0 3,4 11 6 26 14 ESE 0,0
11.02.2019 14:00:00 16,7 5,3 7 4 21 12 ESE 0,0
11.02.2019 13:00:00 18,5 2,7 6 3 22 12 E -

tt = Température de l'air
td = dewpoint
ff = Vitesse du vent
fx = gusts
dd = Direction du vent
rr = Quantités de précipitations

stations d'obs. à proximité